• Join FlightAware (Why Join?)
  • Login
  • US Flag 
04:29AM EST


 

Airport Tracker/Info


-or-


 

Live Flight TrackerFlight Track Log ✈ SWA718 ✈ 27-Sep-2013 ✈ KROC - KMDW

Flight Track Log - Related Links

Times and Time Zones

All times are in EDT time to prevent confusion due to time zone crossing. See the SWA718 flight status page for this flight to view local times or setup timezone preferences in your user account.

Time Position Orientation Groundspeed Altitude Reporting Facility
EDT Latitude Longitude Course Direction KTS MPH feet Rate Location/Type
05:49PM 43.1797 -77.6661 359° North 218 251 3,200  Level Cleveland Center
05:49PM 43.1839 -77.6642 19° North 194 223 3,500 2,940 Climbing Cleveland Center
05:50PM 43.1983 -77.5958 74° East 231 266 6,200 2,880 Climbing Cleveland Center
05:50PM 43.1944 -77.5872 122° Southeast 234 269 6,500 2,280 Climbing Cleveland Center
05:51PM 43.1319 -77.5839 178° South 281 323 8,600 2,220 Climbing Cleveland Center
05:51PM 43.1253 -77.5853 189° South 259 298 8,800 1,080 Climbing Cleveland Center
05:52PM 43.0428 -77.6231 199° South 291 335 10,000 1,860 Climbing Cleveland Center
05:53PM 42.9336 -77.6706 198° South 335 386 12,700 2,460 Climbing Cleveland Center
05:54PM 42.8389 -77.7125 198° South 353 406 15,200 2,340 Climbing Cleveland Center
05:55PM 42.7933 -77.8350 243° Southwest 380 437 17,600 1,800 Climbing Cleveland Center
05:56PM 42.7525 -77.9683 247° West 388 447 19,000 2,040 Climbing Cleveland Center
05:57PM 42.6994 -78.1369 247° West 407 468 21,900 1,440 Climbing Cleveland Center
05:58PM 42.6553 -78.2797 247° West 411 473 22,000  Climbing Cleveland Center
05:59PM 42.6086 -78.4297 247° West 429 494 22,000  Level Cleveland Center
06:00PM 42.5642 -78.5761 248° West 424 488 22,000 660 Level Cleveland Center
06:01PM 42.5186 -78.7186 247° West 415 478 23,400 1,320 Climbing Cleveland Center
06:03PM 42.4739 -78.8617 247° West 414 476 24,800 1,200 Climbing Cleveland Center
06:04PM 42.4211 -79.0233 246° West 425 489 26,000 960 Climbing Cleveland Center
06:05PM 42.3736 -79.1733 247° West 435 501 26,800 960 Climbing Cleveland Center
06:06PM 42.3150 -79.3539 246° West 442 509 28,000 960 Climbing Cleveland Center
06:07PM 42.2631 -79.5128 246° West 463 533 28,800 960 Climbing Cleveland Center
06:08PM 42.2131 -79.6661 246° West 454 522 30,000 1,140 Climbing Cleveland Center
06:09PM 42.1611 -79.8222 246° West 460 529 31,200 1,500 Climbing Cleveland Center
06:10PM 42.1044 -79.9942 246° West 440 506 33,200 1,440 Climbing Cleveland Center
06:11PM 42.0536 -80.1453 246° West 439 505 34,200 1,080 Climbing Cleveland Center
06:12PM 42.0036 -80.2964 246° West 441 507 35,500 840 Climbing Cleveland Center
06:13PM 41.9531 -80.4472 246° West 441 507 36,000 240 Climbing Cleveland Center
06:14PM 41.9003 -80.6022 245° Southwest 450 518 36,000  Level Cleveland Center
06:15PM 41.8453 -80.7606 245° Southwest 462 532 36,000  Level Cleveland Center
06:16PM 41.7925 -80.9175 246° West 460 529 36,000  Level Cleveland Center
06:17PM 41.7300 -81.0997 245° Southwest 458 527 36,000  Level Cleveland Center
06:18PM 41.6769 -81.2550 245° Southwest 458 527 36,000  Level Cleveland Center
06:19PM 41.6233 -81.4081 245° Southwest 454 522 36,000  Level Cleveland Center
06:20PM 41.5989 -81.5650 258° West 433 498 36,000  Level Cleveland Center
06:21PM 41.5953 -81.7214 268° West 423 487 36,000  Level Cleveland Center
06:22PM 41.5911 -81.9036 268° West 422 486 36,000  Level Cleveland Center
06:23PM 41.5856 -82.0583 267° West 418 481 36,000  Level Cleveland Center
06:24PM 41.5822 -82.2131 268° West 416 479 36,000  Level Cleveland Center
06:25PM 41.5761 -82.3672 267° West 416 479 36,000  Level Cleveland Center
06:26PM 41.5711 -82.5222 268° West 416 479 36,000  Level Cleveland Center
06:28PM 41.5682 -82.6869 269° West  Level FlightAware Approximate
06:28PM 41.5597 -82.8553 269° West 412 474 36,000  Level Cleveland Center
06:29PM 41.5539 -83.0078 267° West 411 473 36,000  Level Cleveland Center
06:30PM 41.5478 -83.1631 267° West 413 475 36,000  Level Cleveland Center
06:31PM 41.5408 -83.3228 267° West 410 472 36,000  Level Cleveland Center
06:33PM 41.5344 -83.4769 267° West 413 475 36,000  Level Cleveland Center
06:34PM 41.5269 -83.6300 266° West 414 476 36,000 -780 Level Cleveland Center
06:35PM 41.5203 -83.7833 267° West 412 474 34,500 -1,860 Descending Cleveland Center
06:36PM 41.5153 -83.9336 268° West 407 468 32,200 -1,260 Descending Cleveland Center
06:37PM 41.5075 -84.0889 266° West 418 481 32,000 -180 Descending Cleveland Center
06:37PM 41.5042 -84.1700 267° West 416 479 32,000  Level Chicago Center
06:38PM 41.4972 -84.3256 267° West 420 483 32,000  Level Chicago Center
06:39PM 41.4894 -84.4808 266° West 420 483 32,000  Level Chicago Center
06:40PM 41.4794 -84.6706 266° West 427 491 32,000  Level Chicago Center
06:41PM 41.4867 -84.8289 274° West 427 491 32,000 -300 Level Chicago Center
06:42PM 41.4928 -84.9847 273° West 423 487 31,500 -1,380 Descending Chicago Center
06:43PM 41.4978 -85.1364 273° West 412 474 29,200 -2,280 Descending Chicago Center
06:44PM 41.5028 -85.2889 273° West 408 470 26,800 -2,340 Descending Chicago Center
06:45PM 41.5064 -85.4417 272° West 404 465 24,400 -1,620 Descending Chicago Center
06:46PM 41.5122 -85.5839 273° West 372 428 23,500 -1,500 Descending Chicago Center
06:48PM 41.5156 -85.7250 272° West 377 434 21,300 -2,160 Descending Chicago Center
06:49PM 41.5203 -85.8844 272° West 358 412 19,100 -1,980 Descending Chicago Center
06:50PM 41.5236 -86.0133 272° West 350 403 17,300 -1,980 Descending Chicago Center
06:51PM 41.5244 -86.1411 271° West 345 397 15,100 -2,100 Descending Chicago Center
06:52PM 41.5233 -86.2667 269° West 341 392 13,000 -1,980 Descending Chicago Center
06:53PM 41.5228 -86.3900 270° West 333 383 11,100 -1,320 Descending Chicago Center
06:54PM 41.5219 -86.5103 270° West 326 375 10,300 -540 Descending Chicago Center
06:55PM 41.5208 -86.6614 269° West 341 392 10,000 -180 Descending Chicago Center
06:56PM 41.5206 -86.7881 270° West 336 387 10,000 -420 Level Chicago Center
06:57PM 41.5186 -86.8989 269° West 307 353 9,200 -1,020 Descending Chicago Center
06:58PM 41.5164 -87.0033 268° West 289 333 7,900 -1,560 Descending Chicago Center
06:59PM 41.5156 -87.1308 270° West 286 329 6,000 -1,500 Descending Chicago Center
07:00PM 41.5228 -87.2336 275° West 284 327 4,800 -1,020 Descending Chicago Center
07:01PM 41.5358 -87.3325 280° West 278 320 4,000 -420 Descending Chicago Center
07:02PM 41.5478 -87.4306 279° West 273 314 4,000 -60 Level Chicago Center
07:03PM 41.5583 -87.5342 278° West 277 319 3,900  Descending Chicago Center
07:04PM 41.5728 -87.6503 279° West 273 314 4,000 -300 Climbing Chicago Center
07:05PM 41.5853 -87.7528 279° West 276 318 3,300 -540 Descending Chicago Center
07:06PM 41.6075 -87.8464 288° West 271 312 2,900 -240 Descending Chicago Center
07:07PM 41.6489 -87.9039 314° West 249 287 2,900  Level Chicago Center
07:08PM 41.6886 -87.8739 29° Northeast 199 229 3,000 -540 Climbing Chicago Center
07:09PM 41.7306 -87.8217 43° Northeast 182 209 1,900 -900 Descending Chicago Center
07:10PM 41.7575 -87.7869 44° Northeast 156 180 1,200 -480 Descending Chicago Center
07:11PM 41.7825 -87.7569 42° Northeast 147 169 1,000 -240 Descending Chicago Center
07:13PM 41.7833 -87.7500 340° North  Level FlightAware Approximate